createdAt,value
2016-10-12T00:00:16.948Z,0
2016-10-12T00:01:16.972Z,0
2016-10-12T00:02:16.385Z,0
2016-10-12T00:03:16.681Z,0
2016-10-12T00:04:17.332Z,0
2016-10-12T00:05:17.030Z,0
2016-10-12T00:06:16.731Z,0
2016-10-12T00:07:17.199Z,0
2016-10-12T00:08:17.135Z,0
2016-10-12T00:09:17.289Z,0
2016-10-12T00:10:17.502Z,0
2016-10-12T00:11:16.835Z,0
2016-10-12T00:12:17.480Z,0
2016-10-12T00:13:17.196Z,0
2016-10-12T00:14:16.881Z,0
2016-10-12T00:15:17.209Z,0
2016-10-12T00:16:17.488Z,0
2016-10-12T00:17:17.285Z,0
2016-10-12T00:18:17.634Z,0
2016-10-12T00:19:16.990Z,0
2016-10-12T00:20:16.982Z,0
2016-10-12T00:21:17.178Z,0
2016-10-12T00:22:17.032Z,0
2016-10-12T00:23:18.075Z,0
2016-10-12T00:24:17.094Z,0
2016-10-12T00:25:17.086Z,0
2016-10-12T00:26:17.403Z,0
2016-10-12T00:27:17.101Z,0
2016-10-12T00:28:17.452Z,0
2016-10-12T00:29:17.488Z,0
2016-10-12T00:30:17.521Z,0
2016-10-12T00:31:17.801Z,0
2016-10-12T00:32:17.495Z,0
2016-10-12T00:33:17.572Z,0
2016-10-12T00:34:17.537Z,0
2016-10-12T00:35:17.252Z,0
2016-10-12T00:36:17.608Z,0
2016-10-12T00:37:17.439Z,0
2016-10-12T00:38:17.604Z,0
2016-10-12T00:39:17.316Z,0
2016-10-12T00:40:17.641Z,0
2016-10-12T00:41:17.755Z,0
2016-10-12T00:42:18.169Z,0
2016-10-12T00:43:17.865Z,0
2016-10-12T00:44:17.917Z,0
2016-10-12T00:45:17.527Z,0
2016-10-12T00:46:18.076Z,0
2016-10-12T00:47:17.620Z,0
2016-10-12T00:48:17.582Z,0
2016-10-12T00:49:18.485Z,0
2016-10-12T00:50:17.559Z,0
2016-10-12T00:51:17.413Z,0
2016-10-12T00:52:17.855Z,0
2016-10-12T00:53:17.327Z,0
2016-10-12T00:54:18.237Z,0
2016-10-12T00:55:17.931Z,0
2016-10-12T00:56:18.353Z,0
2016-10-12T00:57:17.972Z,0
2016-10-12T00:58:17.824Z,0
2016-10-12T00:59:17.988Z,0
2016-10-12T01:00:18.039Z,0
2016-10-12T01:01:18.516Z,0
2016-10-12T01:02:18.524Z,0
2016-10-12T01:03:17.422Z,0
2016-10-12T01:04:17.960Z,0
2016-10-12T01:05:18.091Z,0
2016-10-12T01:06:17.469Z,0
2016-10-12T01:07:17.864Z,0
2016-10-12T01:08:18.215Z,0
2016-10-12T01:09:18.478Z,0
2016-10-12T01:10:17.939Z,0
2016-10-12T01:11:18.027Z,0
2016-10-12T01:12:18.267Z,0
2016-10-12T01:13:18.608Z,0
2016-10-12T01:14:17.916Z,0
2016-10-12T01:15:18.488Z,0
2016-10-12T01:16:18.602Z,0
2016-10-12T01:17:18.601Z,0
2016-10-12T01:18:18.617Z,0
2016-10-12T01:19:17.689Z,0
2016-10-12T01:20:18.061Z,0
2016-10-12T01:21:18.684Z,0
2016-10-12T01:22:18.116Z,0
2016-10-12T01:23:18.175Z,0
2016-10-12T01:24:18.411Z,0
2016-10-12T01:25:18.890Z,0
2016-10-12T01:26:18.151Z,0
2016-10-12T01:27:18.770Z,0
2016-10-12T01:28:18.487Z,0
2016-10-12T01:29:18.303Z,0
2016-10-12T01:30:18.223Z,0
2016-10-12T01:31:17.911Z,0
2016-10-12T01:32:18.259Z,0
2016-10-12T01:33:18.275Z,0
2016-10-12T01:34:18.326Z,0
2016-10-12T01:35:18.279Z,0
2016-10-12T01:36:18.367Z,0
2016-10-12T01:37:18.692Z,0
2016-10-12T01:38:18.651Z,0
2016-10-12T01:39:18.399Z,0
2016-10-12T01:40:18.453Z,0
2016-10-12T01:41:19.665Z,0
2016-10-12T01:42:18.135Z,0
2016-10-12T01:43:18.824Z,0
2016-10-12T01:44:18.488Z,0
2016-10-12T01:45:18.835Z,0
2016-10-12T01:46:18.890Z,0
2016-10-12T01:47:18.575Z,0
2016-10-12T01:48:18.978Z,0
2016-10-12T01:49:18.935Z,0
2016-10-12T01:50:18.687Z,0
2016-10-12T01:51:18.255Z,0
2016-10-12T01:52:18.891Z,0
2016-10-12T01:53:18.288Z,0
2016-10-12T01:54:19.086Z,0
2016-10-12T01:55:18.972Z,0
2016-10-12T01:56:18.969Z,0
2016-10-12T01:57:18.703Z,0
2016-10-12T01:58:18.365Z,0
2016-10-12T01:59:19.010Z,0
2016-10-12T02:00:18.714Z,0
2016-10-12T02:01:19.085Z,0
2016-10-12T02:02:18.789Z,0
2016-10-12T02:03:19.125Z,0
2016-10-12T02:04:18.782Z,0
2016-10-12T02:05:18.498Z,0
2016-10-12T02:06:19.132Z,0
2016-10-12T02:07:18.834Z,0
2016-10-12T02:08:19.200Z,0
2016-10-12T02:09:18.869Z,0
2016-10-12T02:10:18.899Z,0
2016-10-12T02:11:18.925Z,0
2016-10-12T02:12:19.249Z,0
2016-10-12T02:13:18.938Z,0
2016-10-12T02:14:19.020Z,0
2016-10-12T02:15:19.031Z,0
2016-10-12T02:16:19.079Z,0
2016-10-12T02:17:19.118Z,0
2016-10-12T02:18:18.712Z,0
2016-10-12T02:19:19.384Z,0
2016-10-12T02:20:19.746Z,0
2016-10-12T02:21:19.078Z,0
2016-10-12T02:22:19.090Z,0
2016-10-12T02:23:19.111Z,0
2016-10-12T02:24:18.813Z,0
2016-10-12T02:25:20.547Z,0
2016-10-12T02:26:20.931Z,0
2016-10-12T02:27:19.497Z,0
2016-10-12T02:28:19.604Z,0
2016-10-12T02:29:19.543Z,0
2016-10-12T02:30:18.961Z,0
2016-10-12T02:31:19.263Z,0
2016-10-12T02:32:19.635Z,0
2016-10-12T02:33:18.967Z,0
2016-10-12T02:34:19.366Z,0
2016-10-12T02:35:19.010Z,0
2016-10-12T02:36:19.349Z,0
2016-10-12T02:37:19.041Z,0
2016-10-12T02:38:20.027Z,0
2016-10-12T02:39:19.427Z,0
2016-10-12T02:40:19.718Z,0
2016-10-12T02:41:19.553Z,0
2016-10-12T02:42:20.074Z,0
2016-10-12T02:43:19.148Z,0
2016-10-12T02:44:19.486Z,0
2016-10-12T02:45:19.836Z,0
2016-10-12T02:46:19.227Z,0
2016-10-12T02:47:19.538Z,0
2016-10-12T02:48:19.861Z,0
2016-10-12T02:49:19.558Z,0
2016-10-12T02:50:19.291Z,0
2016-10-12T02:51:19.630Z,0
2016-10-12T02:52:19.927Z,0
2016-10-12T02:53:19.624Z,0
2016-10-12T02:54:19.665Z,0
2016-10-12T02:55:19.683Z,0
2016-10-12T02:56:19.995Z,0
2016-10-12T02:57:19.718Z,0
2016-10-12T02:58:19.724Z,0
2016-10-12T02:59:19.424Z,0
2016-10-12T03:00:19.463Z,0
2016-10-12T03:01:20.397Z,0
2016-10-12T03:02:19.804Z,0
2016-10-12T03:03:19.746Z,0
2016-10-12T03:04:20.507Z,0
2016-10-12T03:05:19.549Z,0
2016-10-12T03:06:20.184Z,0
2016-10-12T03:07:19.918Z,0
2016-10-12T03:08:20.345Z,0
2016-10-12T03:09:20.444Z,0
2016-10-12T03:10:20.255Z,0
2016-10-12T03:11:19.946Z,0
2016-10-12T03:12:19.712Z,0
2016-10-12T03:13:19.731Z,0
2016-10-12T03:14:35.187Z,0
2016-10-12T03:15:20.032Z,0
2016-10-12T03:16:20.823Z,0
2016-10-12T03:17:19.789Z,0
2016-10-12T03:18:19.754Z,0
2016-10-12T03:19:20.103Z,0
2016-10-12T03:20:20.199Z,0
2016-10-12T03:21:19.875Z,0
2016-10-12T03:22:20.813Z,0
2016-10-12T03:23:20.157Z,0
2016-10-12T03:24:20.518Z,0
2016-10-12T03:25:20.232Z,0
2016-10-12T03:26:19.950Z,0
2016-10-12T03:27:19.900Z,0
2016-10-12T03:28:20.545Z,0
2016-10-12T03:29:20.568Z,0
2016-10-12T03:30:20.589Z,0
2016-10-12T03:31:19.974Z,0
2016-10-12T03:32:20.612Z,0
2016-10-12T03:33:20.323Z,0
2016-10-12T03:34:20.967Z,0
2016-10-12T03:35:20.356Z,0
2016-10-12T03:36:20.692Z,0
2016-10-12T03:37:20.722Z,0
2016-10-12T03:38:20.724Z,0
2016-10-12T03:39:20.107Z,0
2016-10-12T03:40:20.127Z,0
2016-10-12T03:41:20.481Z,0
2016-10-12T03:42:20.486Z,0
2016-10-12T03:43:20.813Z,0
2016-10-12T03:44:20.827Z,0
2016-10-12T03:45:20.528Z,0
2016-10-12T03:46:20.860Z,0
2016-10-12T03:47:20.585Z,0
2016-10-12T03:48:20.577Z,0
2016-10-12T03:49:20.916Z,0
2016-10-12T03:50:20.632Z,0
2016-10-12T03:51:20.323Z,0
2016-10-12T03:52:20.648Z,0
2016-10-12T03:53:20.366Z,0
2016-10-12T03:54:21.000Z,0
2016-10-12T03:55:20.702Z,0
2016-10-12T03:56:21.032Z,0
2016-10-12T03:57:20.737Z,0
2016-10-12T03:58:20.755Z,0
2016-10-12T03:59:20.767Z,0
2016-10-12T04:00:20.791Z,0
2016-10-12T04:01:20.808Z,0
2016-10-12T04:02:21.452Z,0
2016-10-12T04:03:20.839Z,0
2016-10-12T04:04:20.538Z,0
2016-10-12T04:05:20.894Z,0
2016-10-12T04:06:20.891Z,0
2016-10-12T04:07:20.913Z,0
2016-10-12T04:08:21.236Z,0
2016-10-12T04:09:21.573Z,0
2016-10-12T04:10:21.272Z,0
2016-10-12T04:11:21.296Z,0
2016-10-12T04:12:21.311Z,0
2016-10-12T04:13:21.326Z,0
2016-10-12T04:14:21.360Z,0
2016-10-12T04:15:21.367Z,0
2016-10-12T04:16:20.745Z,0
2016-10-12T04:17:20.767Z,0
2016-10-12T04:18:21.094Z,0
2016-10-12T04:19:21.131Z,0
2016-10-12T04:20:20.822Z,0
2016-10-12T04:21:21.466Z,0
2016-10-12T04:22:21.830Z,0
2016-10-12T04:23:21.189Z,0
2016-10-12T04:24:21.280Z,0
2016-10-12T04:25:21.218Z,0
2016-10-12T04:26:21.632Z,0
2016-10-12T04:27:21.275Z,0
2016-10-12T04:28:20.966Z,0
2016-10-12T04:29:21.435Z,0
2016-10-12T04:30:21.327Z,0
2016-10-12T04:31:21.031Z,0
2016-10-12T04:32:21.043Z,0
2016-10-12T04:33:21.411Z,0
2016-10-12T04:34:21.456Z,0
2016-10-12T04:35:21.781Z,0
2016-10-12T04:36:21.131Z,0
2016-10-12T04:37:21.757Z,0
2016-10-12T04:38:21.481Z,0
2016-10-12T04:39:21.491Z,0
2016-10-12T04:40:21.566Z,0
2016-10-12T04:41:21.302Z,0
2016-10-12T04:42:22.184Z,0
2016-10-12T04:43:21.554Z,0
2016-10-12T04:44:22.221Z,0
2016-10-12T04:45:21.960Z,0
2016-10-12T04:46:21.897Z,0
2016-10-12T04:47:21.918Z,0
2016-10-12T04:48:21.935Z,0
2016-10-12T04:49:21.628Z,0
2016-10-12T04:50:22.289Z,0
2016-10-12T04:51:21.669Z,0
2016-10-12T04:52:21.748Z,0
2016-10-12T04:53:22.022Z,0
2016-10-12T04:54:23.290Z,0
2016-10-12T04:55:21.759Z,0
2016-10-12T04:56:22.091Z,0
2016-10-12T04:57:21.795Z,0
2016-10-12T04:58:22.475Z,0
2016-10-12T04:59:21.822Z,0
2016-10-12T05:00:21.866Z,0
2016-10-12T05:01:22.167Z,0
2016-10-12T05:02:22.290Z,0
2016-10-12T05:03:21.896Z,0
2016-10-12T05:04:22.379Z,0
2016-10-12T05:05:22.329Z,0
2016-10-12T05:06:22.316Z,0
2016-10-12T05:07:22.302Z,0
2016-10-12T05:08:22.063Z,0
2016-10-12T05:09:22.319Z,0
2016-10-12T05:11:21.710Z,0
2016-10-12T05:12:22.485Z,0
2016-10-12T05:13:22.149Z,0
2016-10-12T05:14:22.401Z,0
2016-10-12T05:15:22.410Z,0
2016-10-12T05:16:22.459Z,0
2016-10-12T05:17:22.568Z,0
2016-10-12T05:18:22.479Z,0
2016-10-12T05:19:22.152Z,0
2016-10-12T05:20:22.486Z,0
2016-10-12T05:21:21.870Z,4
2016-10-12T05:22:22.219Z,4
2016-10-12T05:23:22.855Z,4
2016-10-12T05:24:21.919Z,0
2016-10-12T05:25:23.460Z,0
2016-10-12T05:26:22.414Z,0
2016-10-12T05:27:22.283Z,0
2016-10-12T05:28:22.310Z,4
2016-10-12T05:29:22.953Z,4
2016-10-12T05:30:22.344Z,4
2016-10-12T05:31:22.346Z,4
2016-10-12T05:32:22.695Z,4
2016-10-12T05:33:22.390Z,4
2016-10-12T05:34:22.404Z,0
2016-10-12T05:35:22.733Z,4
2016-10-12T05:36:22.771Z,4
2016-10-12T05:37:22.454Z,4
2016-10-12T05:38:22.788Z,4
2016-10-12T05:39:22.486Z,8
2016-10-12T05:40:22.832Z,4
2016-10-12T05:41:22.239Z,4
2016-10-12T05:42:22.538Z,8
2016-10-12T05:43:23.236Z,4
2016-10-12T05:44:22.903Z,8
2016-10-12T05:45:22.594Z,8
2016-10-12T05:46:22.610Z,8
2016-10-12T05:47:22.308Z,8
2016-10-12T05:48:22.644Z,8
2016-10-12T05:49:22.973Z,8
2016-10-12T05:50:22.356Z,8
2016-10-12T05:51:22.708Z,8
2016-10-12T05:52:23.032Z,8
2016-10-12T05:53:23.039Z,8
2016-10-12T05:54:23.080Z,8
2016-10-12T05:55:23.101Z,8
2016-10-12T05:56:22.786Z,8
2016-10-12T05:57:23.120Z,8
2016-10-12T05:58:22.834Z,8
2016-10-12T05:59:23.464Z,8
2016-10-12T06:00:23.170Z,8
2016-10-12T06:01:23.186Z,12
2016-10-12T06:02:22.584Z,12
2016-10-12T06:03:22.595Z,8
2016-10-12T06:04:23.236Z,8
2016-10-12T06:05:22.619Z,8
2016-10-12T06:06:22.958Z,8
2016-10-12T06:07:22.649Z,8
2016-10-12T06:08:22.985Z,8
2016-10-12T06:09:22.683Z,8
2016-10-12T06:10:23.335Z,12
2016-10-12T06:11:23.673Z,12
2016-10-12T06:12:22.757Z,12
2016-10-12T06:13:23.386Z,16
2016-10-12T06:14:23.730Z,16
2016-10-12T06:15:23.425Z,20
2016-10-12T06:16:23.133Z,24
2016-10-12T06:17:23.138Z,24
2016-10-12T06:18:23.484Z,28
2016-10-12T06:19:23.499Z,28
2016-10-12T06:20:23.200Z,28
2016-10-12T06:21:23.214Z,32
2016-10-12T06:22:23.546Z,32
2016-10-12T06:23:23.560Z,32
2016-10-12T06:24:23.592Z,32
2016-10-12T06:25:23.282Z,32
2016-10-12T06:26:22.997Z,36
2016-10-12T06:27:23.310Z,36
2016-10-12T06:28:23.653Z,36
2016-10-12T06:29:23.659Z,40
2016-10-12T06:30:23.695Z,40
2016-10-12T06:31:23.704Z,44
2016-10-12T06:32:24.031Z,44
2016-10-12T06:33:23.416Z,44
2016-10-12T06:34:23.122Z,44
2016-10-12T06:35:23.138Z,44
2016-10-12T06:36:23.787Z,40
2016-10-12T06:37:23.799Z,40
2016-10-12T06:38:23.504Z,36
2016-10-12T06:39:23.525Z,32
2016-10-12T06:40:23.544Z,32
2016-10-12T06:41:23.550Z,28
2016-10-12T06:42:23.886Z,28
2016-10-12T06:43:23.586Z,32
2016-10-12T06:44:23.936Z,40
2016-10-12T06:45:23.310Z,52
2016-10-12T06:46:23.637Z,76
2016-10-12T06:47:23.654Z,104
2016-10-12T06:48:23.988Z,144
2016-10-12T06:49:23.689Z,152
2016-10-12T06:50:23.709Z,152
2016-10-12T06:51:23.720Z,136
2016-10-12T06:52:23.740Z,124
2016-10-12T06:53:24.389Z,120
2016-10-12T06:54:23.786Z,116
2016-10-12T06:55:24.108Z,116
2016-10-12T06:56:23.820Z,128
2016-10-12T06:57:23.825Z,148
2016-10-12T06:58:23.537Z,176
2016-10-12T06:59:23.869Z,208
2016-10-12T07:00:23.880Z,216
2016-10-12T07:01:24.522Z,220
2016-10-12T07:02:23.912Z,224
2016-10-12T07:03:23.927Z,220
2016-10-12T07:04:23.633Z,200
2016-10-12T07:05:23.649Z,212
2016-10-12T07:06:23.663Z,216
2016-10-12T07:07:23.684Z,212
2016-10-12T07:08:24.025Z,200
2016-10-12T07:09:24.040Z,184
2016-10-12T07:10:24.370Z,176
2016-10-12T07:11:24.378Z,180
2016-10-12T07:12:24.084Z,172
2016-10-12T07:13:24.426Z,156
2016-10-12T07:14:24.437Z,148
2016-10-12T07:15:24.447Z,144
2016-10-12T07:16:24.804Z,140
2016-10-12T07:17:24.167Z,152
2016-10-12T07:18:24.511Z,152
2016-10-12T07:19:24.518Z,160
2016-10-12T07:20:23.905Z,168
2016-10-12T07:21:24.872Z,172
2016-10-12T07:22:24.577Z,180
2016-10-12T07:23:24.273Z,184
2016-10-12T07:24:24.303Z,192
2016-10-12T07:25:23.998Z,200
2016-10-12T07:26:24.641Z,216
2016-10-12T07:27:24.682Z,248
2016-10-12T07:28:24.045Z,308
2016-10-12T07:29:24.705Z,492
2016-10-12T07:30:25.043Z,600
2016-10-12T07:31:24.437Z,676
2016-10-12T07:32:24.759Z,680
2016-10-12T07:33:24.469Z,340
2016-10-12T07:34:24.786Z,220
2016-10-12T07:35:24.484Z,216
2016-10-12T07:36:24.818Z,212
2016-10-12T07:37:24.831Z,212
2016-10-12T07:38:24.547Z,240
2016-10-12T07:39:24.553Z,332
2016-10-12T07:40:24.575Z,480
2016-10-12T07:41:24.603Z,488
2016-10-12T07:42:24.602Z,744
2016-10-12T07:43:24.623Z,640
2016-10-12T07:44:24.959Z,780
2016-10-12T07:45:24.351Z,756
2016-10-12T07:46:24.742Z,604
2016-10-12T07:47:25.321Z,636
2016-10-12T07:48:25.020Z,644
2016-10-12T07:49:24.727Z,580
2016-10-12T07:50:25.051Z,472
2016-10-12T07:51:25.079Z,396
2016-10-12T07:52:25.089Z,348
2016-10-12T07:53:24.486Z,312
2016-10-12T07:54:25.134Z,288
2016-10-12T07:55:24.513Z,280
2016-10-12T07:56:25.157Z,280
2016-10-12T07:57:24.865Z,284
2016-10-12T07:58:24.884Z,316
2016-10-12T07:59:24.584Z,356
2016-10-12T08:00:24.926Z,404
2016-10-12T08:01:24.938Z,512
2016-10-12T08:02:24.646Z,564
2016-10-12T08:03:25.609Z,676
2016-10-12T08:04:24.673Z,824
2016-10-12T08:05:25.005Z,1304
2016-10-12T08:06:25.023Z,1120
2016-10-12T08:07:25.670Z,1420
2016-10-12T08:08:25.372Z,3660
2016-10-12T08:09:24.774Z,1736
2016-10-12T08:10:24.783Z,1120
2016-10-12T08:11:25.432Z,984
2016-10-12T08:12:25.129Z,1124
2016-10-12T08:13:24.842Z,1112
2016-10-12T08:14:25.173Z,916
2016-10-12T08:15:25.189Z,648
2016-10-12T08:16:24.898Z,520
2016-10-12T08:17:24.908Z,372
2016-10-12T08:18:25.235Z,320
2016-10-12T08:19:25.283Z,320
2016-10-12T08:20:25.599Z,292
2016-10-12T08:21:25.612Z,276
2016-10-12T08:22:25.624Z,272
2016-10-12T08:23:25.653Z,272
2016-10-12T08:24:25.037Z,284
2016-10-12T08:25:25.367Z,308
2016-10-12T08:26:26.016Z,328
2016-10-12T08:27:25.723Z,328
2016-10-12T08:28:25.106Z,408
2016-10-12T08:29:25.455Z,376
2016-10-12T08:30:26.080Z,388
2016-10-12T08:31:25.819Z,364
2016-10-12T08:32:26.113Z,300
2016-10-12T08:33:25.503Z,248
2016-10-12T08:34:25.841Z,204
2016-10-12T08:35:25.560Z,176
2016-10-12T08:36:25.276Z,160
2016-10-12T08:37:25.896Z,152
2016-10-12T08:38:25.614Z,140
2016-10-12T08:39:25.950Z,140
2016-10-12T08:40:25.949Z,140
2016-10-12T08:41:25.654Z,144
2016-10-12T08:42:25.669Z,148
2016-10-12T08:43:25.373Z,152
2016-10-12T08:44:26.016Z,156
2016-10-12T08:45:25.725Z,164
2016-10-12T08:46:26.571Z,168
2016-10-12T08:47:25.778Z,176
2016-10-12T08:48:25.475Z,188
2016-10-12T08:49:26.123Z,192
2016-10-12T08:50:25.942Z,196
2016-10-12T08:51:26.276Z,200
2016-10-12T08:52:26.236Z,200
2016-10-12T08:53:26.385Z,200
2016-10-12T08:54:26.210Z,200
2016-10-12T08:55:25.898Z,204
2016-10-12T08:56:25.932Z,204
2016-10-12T08:57:26.255Z,204
2016-10-12T08:58:26.029Z,204
2016-10-12T08:59:25.972Z,200
2016-10-12T09:00:25.675Z,200
2016-10-12T09:01:25.698Z,196
2016-10-12T09:02:26.350Z,196
2016-10-12T09:03:26.365Z,196
2016-10-12T09:04:26.695Z,196
2016-10-12T09:05:26.084Z,196
2016-10-12T09:06:26.742Z,196
2016-10-12T09:07:26.121Z,196
2016-10-12T09:08:26.776Z,196
2016-10-12T09:09:27.918Z,196
2016-10-12T09:10:27.376Z,196
2016-10-12T09:11:26.841Z,200
2016-10-12T09:12:26.211Z,204
2016-10-12T09:13:25.915Z,208
2016-10-12T09:14:26.695Z,220
2016-10-12T09:15:26.318Z,232
2016-10-12T09:16:26.412Z,244
2016-10-12T09:17:26.303Z,256
2016-10-12T09:18:26.327Z,276
2016-10-12T09:19:26.657Z,296
2016-10-12T09:20:26.375Z,324
2016-10-12T09:21:27.003Z,352
2016-10-12T09:22:26.710Z,380
2016-10-12T09:23:26.113Z,412
2016-10-12T09:24:26.113Z,416
2016-10-12T09:25:26.131Z,428
2016-10-12T09:26:26.791Z,420
2016-10-12T09:27:26.808Z,436
2016-10-12T09:28:26.509Z,424
2016-10-12T09:29:26.516Z,432
2016-10-12T09:30:26.677Z,460
2016-10-12T09:31:26.564Z,424
2016-10-12T09:32:26.576Z,416
2016-10-12T09:33:26.921Z,404
2016-10-12T09:34:26.307Z,392
2016-10-12T09:35:26.627Z,368
2016-10-12T09:36:26.970Z,340
2016-10-12T09:37:26.985Z,324
2016-10-12T09:38:27.201Z,312
2016-10-12T09:39:27.041Z,292
2016-10-12T09:40:27.007Z,280
2016-10-12T09:41:26.546Z,272
2016-10-12T09:42:26.824Z,264
2016-10-12T09:43:26.939Z,264
2016-10-12T09:44:27.116Z,268
2016-10-12T09:45:27.147Z,264
2016-10-12T09:46:26.520Z,252
2016-10-12T09:47:26.857Z,240
2016-10-12T09:48:27.187Z,228
2016-10-12T09:49:26.893Z,220
2016-10-12T09:50:26.595Z,216
2016-10-12T09:51:26.937Z,208
2016-10-12T09:52:26.965Z,200
2016-10-12T09:53:27.286Z,196
2016-10-12T09:54:26.709Z,188
2016-10-12T09:55:27.044Z,188
2016-10-12T09:56:27.027Z,180
2016-10-12T09:57:27.360Z,176
2016-10-12T09:58:27.375Z,168
2016-10-12T09:59:27.082Z,160
2016-10-12T10:00:27.162Z,152
2016-10-12T10:01:27.128Z,148
2016-10-12T10:02:27.463Z,144
2016-10-12T10:03:27.150Z,148
2016-10-12T10:04:27.489Z,152
2016-10-12T10:05:27.553Z,152
2016-10-12T10:06:28.259Z,156
2016-10-12T10:07:27.899Z,160
2016-10-12T10:08:27.360Z,168
2016-10-12T10:09:27.715Z,180
2016-10-12T10:10:27.315Z,196
2016-10-12T10:11:27.302Z,204
2016-10-12T10:12:27.004Z,216
2016-10-12T10:13:27.657Z,224
2016-10-12T10:14:27.360Z,224
2016-10-12T10:15:27.380Z,216
2016-10-12T10:16:27.118Z,220
2016-10-12T10:17:27.464Z,212
2016-10-12T10:18:27.432Z,200
2016-10-12T10:19:27.456Z,196
2016-10-12T10:20:27.783Z,200
2016-10-12T10:21:27.226Z,196
2016-10-12T10:22:27.506Z,196
2016-10-12T10:23:27.540Z,180
2016-10-12T10:24:27.866Z,168
2016-10-12T10:25:27.560Z,152
2016-10-12T10:26:27.268Z,128
2016-10-12T10:27:27.919Z,116
2016-10-12T10:28:27.628Z,112
2016-10-12T10:29:27.637Z,96
2016-10-12T10:30:27.345Z,88
2016-10-12T10:31:27.366Z,80
2016-10-12T10:32:27.696Z,76
2016-10-12T10:33:28.033Z,68
2016-10-12T10:34:28.049Z,60
2016-10-12T10:35:28.584Z,52
2016-10-12T10:36:27.777Z,48
2016-10-12T10:37:27.797Z,48
2016-10-12T10:38:27.820Z,44
2016-10-12T10:39:28.143Z,40
2016-10-12T10:40:27.528Z,40
2016-10-12T10:41:27.552Z,36
2016-10-12T10:42:28.203Z,36
2016-10-12T10:43:28.214Z,36
2016-10-12T10:44:27.606Z,36
2016-10-12T10:45:27.939Z,32
2016-10-12T10:46:27.963Z,28
2016-10-12T10:47:28.609Z,32
2016-10-12T10:48:27.683Z,32
2016-10-12T10:49:28.014Z,28
2016-10-12T10:50:28.051Z,32
2016-10-12T10:51:28.379Z,32
2016-10-12T10:52:28.070Z,32
2016-10-12T10:53:28.100Z,32
2016-10-12T10:54:28.428Z,32
2016-10-12T10:55:27.819Z,32
2016-10-12T10:56:28.457Z,32
2016-10-12T10:57:28.797Z,32
2016-10-12T10:58:27.869Z,32
2016-10-12T10:59:28.598Z,36
2016-10-12T11:00:28.215Z,36
2016-10-12T11:01:28.249Z,40
2016-10-12T11:02:28.263Z,44
2016-10-12T11:03:28.274Z,44
2016-10-12T11:04:28.296Z,48
2016-10-12T11:05:28.630Z,52
2016-10-12T11:06:28.651Z,52
2016-10-12T11:07:28.354Z,56
2016-10-12T11:08:28.053Z,56
2016-10-12T11:09:28.712Z,60
2016-10-12T11:10:28.405Z,64
2016-10-12T11:11:28.748Z,68
2016-10-12T11:12:28.762Z,72
2016-10-12T11:13:28.475Z,76
2016-10-12T11:14:28.482Z,88
2016-10-12T11:15:28.822Z,96
2016-10-12T11:16:28.207Z,104
2016-10-12T11:17:28.851Z,112
2016-10-12T11:18:28.557Z,120
2016-10-12T11:19:28.893Z,124
2016-10-12T11:20:28.279Z,136
2016-10-12T11:21:28.926Z,152
2016-10-12T11:22:28.950Z,164
2016-10-12T11:23:28.967Z,172
2016-10-12T11:24:28.984Z,184
2016-10-12T11:25:28.703Z,192
2016-10-12T11:26:29.020Z,208
2016-10-12T11:27:29.366Z,232
2016-10-12T11:28:28.746Z,240
2016-10-12T11:29:29.082Z,244
2016-10-12T11:30:28.783Z,272
2016-10-12T11:31:28.796Z,272
2016-10-12T11:32:28.819Z,276
2016-10-12T11:33:29.150Z,268
2016-10-12T11:34:28.857Z,264
2016-10-12T11:35:29.184Z,272
2016-10-12T11:36:28.888Z,292
2016-10-12T11:37:28.908Z,460
2016-10-12T11:38:29.246Z,444
2016-10-12T11:39:29.578Z,380
2016-10-12T11:40:28.650Z,448
2016-10-12T11:41:29.294Z,460
2016-10-12T11:42:28.688Z,416
2016-10-12T11:43:28.700Z,352
2016-10-12T11:44:29.357Z,344
2016-10-12T11:45:29.701Z,332
2016-10-12T11:46:29.420Z,336
2016-10-12T11:47:29.098Z,388
2016-10-12T11:48:29.117Z,612
2016-10-12T11:49:29.132Z,496
2016-10-12T11:50:29.469Z,672
2016-10-12T11:51:29.804Z,760
2016-10-12T11:52:29.184Z,772
2016-10-12T11:53:29.215Z,760
2016-10-12T11:54:29.542Z,728
2016-10-12T11:55:29.243Z,760
2016-10-12T11:56:29.263Z,756
2016-10-12T11:57:29.605Z,760
2016-10-12T11:58:28.988Z,756
2016-10-12T11:59:29.324Z,752
2016-10-12T12:00:29.342Z,772
2016-10-12T12:01:29.682Z,784
2016-10-12T12:02:29.695Z,808
2016-10-12T12:03:29.399Z,832
2016-10-12T12:04:29.734Z,860
2016-10-12T12:05:29.438Z,884
2016-10-12T12:06:30.092Z,884
2016-10-12T12:07:29.798Z,884
2016-10-12T12:08:29.824Z,888
2016-10-12T12:09:29.515Z,872
2016-10-12T12:10:29.850Z,852
2016-10-12T12:11:29.875Z,820
2016-10-12T12:12:29.893Z,800
2016-10-12T12:13:29.916Z,784
2016-10-12T12:14:29.931Z,776
2016-10-12T12:15:29.638Z,744
2016-10-12T12:16:30.294Z,504
2016-10-12T12:17:29.362Z,336
2016-10-12T12:18:29.399Z,328
2016-10-12T12:19:29.718Z,336
2016-10-12T12:20:29.735Z,352
2016-10-12T12:21:30.071Z,352
2016-10-12T12:22:29.846Z,812
2016-10-12T12:23:29.835Z,392
2016-10-12T12:24:30.186Z,532
2016-10-12T12:25:29.865Z,332
2016-10-12T12:26:30.269Z,356
2016-10-12T12:27:29.576Z,324
2016-10-12T12:28:30.241Z,716
2016-10-12T12:29:29.972Z,408
2016-10-12T12:30:30.330Z,340
2016-10-12T12:31:30.005Z,464
2016-10-12T12:32:30.336Z,580
2016-10-12T12:33:29.828Z,708
2016-10-12T12:34:30.522Z,572
2016-10-12T12:35:30.217Z,752
2016-10-12T12:36:30.094Z,736
2016-10-12T12:37:30.418Z,616
2016-10-12T12:38:30.172Z,712
2016-10-12T12:39:30.230Z,316
2016-10-12T12:40:30.546Z,276
2016-10-12T12:41:30.198Z,256
2016-10-12T12:42:29.889Z,248
2016-10-12T12:43:30.263Z,244
2016-10-12T12:44:29.931Z,332
2016-10-12T12:45:30.581Z,256
2016-10-12T12:46:30.596Z,244
2016-10-12T12:47:30.296Z,220
2016-10-12T12:48:30.313Z,208
2016-10-12T12:49:30.339Z,208
2016-10-12T12:50:30.042Z,212
2016-10-12T12:51:30.691Z,208
2016-10-12T12:52:30.402Z,208
2016-10-12T12:53:30.419Z,208
2016-10-12T12:54:32.148Z,204
2016-10-12T12:55:30.481Z,204
2016-10-12T12:56:30.591Z,208
2016-10-12T12:57:30.943Z,200
2016-10-12T12:58:30.228Z,192
2016-10-12T12:59:30.889Z,192
2016-10-12T13:00:30.596Z,200
2016-10-12T13:01:30.639Z,200
2016-10-12T13:02:30.975Z,200
2016-10-12T13:03:31.275Z,200
2016-10-12T13:04:31.077Z,196
2016-10-12T13:05:31.028Z,196
2016-10-12T13:06:31.078Z,192
2016-10-12T13:07:31.043Z,188
2016-10-12T13:09:30.817Z,184
2016-10-12T13:10:30.784Z,184
2016-10-12T13:11:30.839Z,184
2016-10-12T13:12:30.655Z,184
2016-10-12T13:13:30.881Z,184
2016-10-12T13:14:31.521Z,180
2016-10-12T13:15:30.933Z,180
2016-10-12T13:16:30.725Z,172
2016-10-12T13:17:30.973Z,168
2016-10-12T13:18:30.627Z,164
2016-10-12T13:19:31.277Z,160
2016-10-12T13:20:30.984Z,160
2016-10-12T13:21:31.323Z,152
2016-10-12T13:22:31.338Z,152
2016-10-12T13:23:31.436Z,152
2016-10-12T13:24:31.701Z,140
2016-10-12T13:25:32.167Z,148
2016-10-12T13:26:31.468Z,144
2016-10-12T13:27:30.911Z,144
2016-10-12T13:28:31.477Z,144
2016-10-12T13:29:30.904Z,148
2016-10-12T13:30:31.374Z,148
2016-10-12T13:31:31.211Z,144
2016-10-12T13:32:31.327Z,148
2016-10-12T13:33:31.593Z,144
2016-10-12T13:34:31.290Z,148
2016-10-12T13:35:31.983Z,148
2016-10-12T13:36:31.733Z,148
2016-10-12T13:37:31.992Z,148
2016-10-12T13:38:31.118Z,148
2016-10-12T13:39:31.420Z,152
2016-10-12T13:40:31.453Z,156
2016-10-12T13:41:31.103Z,164
2016-10-12T13:42:32.138Z,168
2016-10-12T13:43:31.879Z,180
2016-10-12T13:44:31.812Z,192
2016-10-12T13:45:31.552Z,192
2016-10-12T13:46:31.277Z,196
2016-10-12T13:47:31.635Z,204
2016-10-12T13:48:31.551Z,204
2016-10-12T13:49:31.888Z,212
2016-10-12T13:50:31.906Z,212
2016-10-12T13:51:31.610Z,208
2016-10-12T13:52:31.635Z,220
2016-10-12T13:53:32.284Z,248
2016-10-12T13:54:32.311Z,232
2016-10-12T13:55:31.692Z,236
2016-10-12T13:56:32.028Z,268
2016-10-12T13:57:32.391Z,348
2016-10-12T13:58:32.086Z,372
2016-10-12T13:59:31.771Z,196
2016-10-12T14:00:31.475Z,196
2016-10-12T14:01:32.141Z,172
2016-10-12T14:02:32.159Z,164
2016-10-12T14:03:31.886Z,160
2016-10-12T14:04:31.880Z,164
2016-10-12T14:05:31.918Z,296
2016-10-12T14:06:31.940Z,340
2016-10-12T14:07:32.263Z,332
2016-10-12T14:08:32.602Z,332
2016-10-12T14:09:31.986Z,340
2016-10-12T14:10:31.995Z,332
2016-10-12T14:11:32.038Z,324
2016-10-12T14:12:32.035Z,324
2016-10-12T14:13:32.374Z,316
2016-10-12T14:14:32.075Z,320
2016-10-12T14:15:31.782Z,324
2016-10-12T14:16:32.436Z,324